Time;durP1;ratioP1;P1;durP2;ratioP2;P2;SDS_P1;SDS_P2;PMS_P1;PMS_P2;Temp;Humidity;BMP_temperature;BMP_pressure;BME280_temperature;BME280_humidity;BME280_pressure;Samples;Min_cycle;Max_cycle;Signal;HPM_P1;HPM_P2
2023/06/16 00:00:25;;;;;;;2.58;2.38;;;19.90;52.10;;;;;;5040907;28;20209;-67
2023/06/16 00:02:51;;;;;;;4.47;2.97;;;19.90;52.00;;;;;;5052224;28;20192;-68
2023/06/16 00:05:17;;;;;;;2.58;2.30;;;19.90;52.10;;;;;;5036116;28;20240;-68
2023/06/16 00:07:48;;;;;;;3.97;2.67;;;19.80;52.20;;;;;;5051267;28;20182;-70
2023/06/16 00:10:18;;;;;;;3.72;2.63;;;19.80;52.50;;;;;;5031007;28;20347;-70
2023/06/16 00:12:46;;;;;;;3.10;2.60;;;19.80;52.30;;;;;;5057011;28;20300;-69
2023/06/16 00:15:14;;;;;;;4.28;3.05;;;19.80;52.70;;;;;;5056792;28;20182;-70
2023/06/16 00:17:44;;;;;;;4.03;2.58;;;19.80;52.50;;;;;;5032401;28;20261;-68
2023/06/16 00:20:11;;;;;;;3.92;2.47;;;19.70;52.30;;;;;;5053590;28;20187;-70
2023/06/16 00:22:37;;;;;;;3.67;2.75;;;19.70;52.40;;;;;;5056097;28;20243;-69
2023/06/16 00:25:05;;;;;;;4.40;2.78;;;19.60;52.40;;;;;;5039312;28;20201;-69
2023/06/16 00:27:31;;;;;;;3.53;2.65;;;19.60;52.60;;;;;;5056159;28;20184;-70
2023/06/16 00:29:59;;;;;;;3.42;2.70;;;19.60;52.60;;;;;;5056040;28;20269;-69
2023/06/16 00:32:27;;;;;;;3.38;3.00;;;19.60;52.70;;;;;;5055357;28;20197;-70
2023/06/16 00:34:53;;;;;;;3.85;2.78;;;19.60;53.60;;;;;;5039207;28;20183;-69
2023/06/16 00:37:21;;;;;;;4.03;3.33;;;19.50;52.90;;;;;;5054956;28;20220;-69
2023/06/16 00:39:47;;;;;;;3.97;3.10;;;19.50;53.30;;;;;;5053015;28;20177;-70
2023/06/16 00:42:12;;;;;;;3.65;2.80;;;19.50;53.20;;;;;;5020033;28;20238;-69
2023/06/16 00:44:40;;;;;;;4.05;3.00;;;19.50;53.30;;;;;;5033891;28;20198;-70
2023/06/16 00:47:09;;;;;;;4.07;2.95;;;19.50;53.50;;;;;;5045833;28;20431;-70
2023/06/16 00:49:36;;;;;;;3.75;2.90;;;19.40;53.60;;;;;;5038449;28;20210;-70
2023/06/16 00:52:05;;;;;;;3.65;2.78;;;19.40;53.80;;;;;;5036244;28;20170;-70
2023/06/16 00:54:34;;;;;;;4.38;3.10;;;19.40;54.10;;;;;;5044047;28;20261;-70
2023/06/16 00:57:00;;;;;;;3.40;2.95;;;19.20;53.90;;;;;;5019302;28;20198;-70
2023/06/16 00:59:29;;;;;;;3.92;3.20;;;19.20;54.20;;;;;;5048099;28;20181;-70
2023/06/16 01:01:55;;;;;;;4.38;2.90;;;19.10;54.50;;;;;;5034403;28;20174;-70
2023/06/16 01:04:24;;;;;;;5.18;3.10;;;19.00;54.50;;;;;;5035975;28;20259;-71
2023/06/16 01:06:59;;;;;;;4.47;3.20;;;18.90;54.70;;;;;;5028600;28;20212;-70
2023/06/16 01:09:52;;;;;;;3.55;2.83;;;18.80;56.10;;;;;;5023389;28;20209;-69
2023/06/16 01:12:40;;;;;;;3.10;2.80;;;18.80;55.60;;;;;;5036111;28;20170;-70
2023/06/16 01:15:11;;;;;;;2.90;2.60;;;18.70;55.70;;;;;;5052727;28;20177;-69
2023/06/16 01:17:43;;;;;;;4.18;2.97;;;18.60;55.90;;;;;;5038709;28;20181;-70
2023/06/16 01:20:28;;;;;;;4.05;2.88;;;18.60;56.10;;;;;;5046271;28;20570;-69
2023/06/16 01:23:20;;;;;;;5.13;2.83;;;18.50;55.60;;;;;;5054067;28;20201;-69
2023/06/16 01:25:51;;;;;;;5.05;2.80;;;18.50;56.90;;;;;;5055545;28;20187;-72
2023/06/16 01:28:25;;;;;;;3.85;3.17;;;18.40;56.30;;;;;;5037926;28;20185;-70
2023/06/16 01:30:53;;;;;;;3.03;2.72;;;18.40;56.70;;;;;;5038570;28;20189;-70
2023/06/16 01:33:22;;;;;;;3.42;2.70;;;18.40;56.40;;;;;;5034849;28;20178;-70
2023/06/16 01:35:51;;;;;;;2.95;2.55;;;18.40;57.20;;;;;;5036378;28;20194;-70
2023/06/16 01:38:17;;;;;;;4.80;3.13;;;18.40;56.80;;;;;;5038594;28;20178;-69
2023/06/16 01:40:44;;;;;;;4.10;2.70;;;18.40;57.10;;;;;;5055017;28;20173;-70
2023/06/16 01:43:10;;;;;;;3.50;3.00;;;18.40;57.70;;;;;;5055047;28;20181;-69
2023/06/16 01:45:39;;;;;;;3.45;2.70;;;18.30;57.60;;;;;;5055091;28;20272;-69
2023/06/16 01:48:12;;;;;;;3.75;2.95;;;18.30;57.60;;;;;;5037606;28;20201;-69
2023/06/16 01:50:38;;;;;;;3.70;2.95;;;18.20;57.90;;;;;;5035002;28;20202;-68
2023/06/16 01:53:03;;;;;;;3.65;2.88;;;18.20;57.80;;;;;;5051154;28;20215;-69
2023/06/16 01:55:29;;;;;;;3.95;3.13;;;18.10;58.10;;;;;;5054352;28;20201;-69
2023/06/16 01:57:58;;;;;;;4.57;3.35;;;18.10;58.40;;;;;;5035641;28;20204;-69
2023/06/16 02:00:35;;;;;;;4.00;3.15;;;18.10;58.30;;;;;;5053736;28;20188;-70
2023/06/16 02:03:22;;;;;;;4.80;2.83;;;18.00;59.10;;;;;;5052855;28;20211;-69
2023/06/16 02:05:52;;;;;;;4.70;3.08;;;18.00;59.60;;;;;;5034722;28;20277;-67
2023/06/16 02:08:23;;;;;;;3.45;2.92;;;18.00;58.30;;;;;;5053683;28;20199;-69
2023/06/16 02:10:49;;;;;;;4.18;2.72;;;17.90;58.40;;;;;;5052325;28;20235;-66
2023/06/16 02:13:14;;;;;;;3.45;2.72;;;17.90;58.10;;;;;;5034035;28;20177;-69
2023/06/16 02:15:45;;;;;;;3.42;2.90;;;17.90;58.10;;;;;;5031100;28;20169;-69
2023/06/16 02:18:11;;;;;;;4.00;2.80;;;17.90;58.40;;;;;;5034892;28;20500;-69
2023/06/16 02:20:39;;;;;;;3.47;3.00;;;17.90;58.20;;;;;;5031641;28;20284;-69
2023/06/16 02:23:07;;;;;;;4.05;3.13;;;17.90;58.70;;;;;;5047159;28;20174;-69
2023/06/16 02:25:37;;;;;;;4.80;3.05;;;17.90;58.90;;;;;;5027629;28;20178;-69
2023/06/16 02:28:06;;;;;;;3.67;3.25;;;17.80;58.70;;;;;;5035463;28;20186;-70
2023/06/16 02:30:32;;;;;;;4.05;3.17;;;17.80;59.20;;;;;;5053934;28;20211;-70
2023/06/16 02:33:00;;;;;;;5.78;3.00;;;17.80;59.90;;;;;;5037137;28;20173;-69
2023/06/16 02:35:26;;;;;;;6.60;3.00;;;17.70;59.30;;;;;;5034488;28;20178;-69
2023/06/16 02:37:54;;;;;;;5.50;2.65;;;17.60;59.30;;;;;;5045492;28;20185;-69
2023/06/16 02:40:23;;;;;;;3.60;2.97;;;17.60;59.30;;;;;;5042331;28;20205;-69
2023/06/16 02:42:48;;;;;;;3.60;2.92;;;17.50;59.70;;;;;;5037608;28;20180;-69
2023/06/16 02:45:15;;;;;;;3.55;3.25;;;17.50;59.70;;;;;;5036908;28;20182;-70
2023/06/16 02:47:41;;;;;;;3.70;3.00;;;17.50;59.90;;;;;;5047776;28;20192;-70
2023/06/16 02:50:08;;;;;;;4.15;3.00;;;17.40;60.10;;;;;;5053861;28;20205;-70
2023/06/16 02:52:33;;;;;;;3.70;3.20;;;17.40;60.50;;;;;;5050092;28;20284;-69
2023/06/16 02:55:00;;;;;;;3.95;2.97;;;17.30;61.00;;;;;;5053410;28;20212;-70
2023/06/16 02:57:27;;;;;;;3.58;2.90;;;17.30;61.10;;;;;;5053771;28;20227;-70
2023/06/16 02:59:55;;;;;;;4.32;3.35;;;17.20;61.40;;;;;;5045749;28;20245;-69
2023/06/16 03:02:25;;;;;;;3.80;3.00;;;17.10;62.50;;;;;;5037439;28;20260;-68
2023/06/16 03:04:51;;;;;;;6.13;3.03;;;17.10;62.20;;;;;;5049996;28;20221;-67
2023/06/16 03:07:17;;;;;;;5.32;3.03;;;17.00;61.90;;;;;;5021065;28;20243;-70
2023/06/16 03:09:43;;;;;;;6.00;3.03;;;17.00;62.90;;;;;;5031265;28;20197;-69
2023/06/16 03:12:12;;;;;;;3.63;3.03;;;17.00;62.70;;;;;;5049973;28;20205;-69
2023/06/16 03:14:40;;;;;;;3.95;2.97;;;16.90;63.40;;;;;;5035889;28;20184;-69
2023/06/16 03:17:06;;;;;;;3.58;3.20;;;16.90;64.10;;;;;;5040178;28;20446;-69
2023/06/16 03:19:32;;;;;;;4.45;3.10;;;16.90;64.80;;;;;;5055768;28;20263;-69
2023/06/16 03:21:58;;;;;;;4.55;2.95;;;16.80;64.30;;;;;;5054994;28;20173;-69
2023/06/16 03:24:29;;;;;;;4.93;2.80;;;16.80;64.30;;;;;;5041219;28;20203;-70
2023/06/16 03:26:59;;;;;;;3.33;2.90;;;16.70;64.30;;;;;;5050810;28;20181;-69
2023/06/16 03:29:25;;;;;;;17.42;13.07;;;16.80;65.20;;;;;;5057178;28;20181;-69
2023/06/16 03:31:53;;;;;;;15.13;11.00;;;16.70;64.80;;;;;;5040576;28;20288;-69
2023/06/16 03:34:19;;;;;;;7.88;6.22;;;16.70;65.20;;;;;;5056431;28;20181;-69
2023/06/16 03:36:44;;;;;;;6.25;5.13;;;16.70;65.60;;;;;;5040378;28;20458;-69
2023/06/16 03:39:10;;;;;;;5.90;4.78;;;16.70;66.00;;;;;;5057517;28;20200;-70
2023/06/16 03:41:41;;;;;;;4.55;3.97;;;16.70;66.50;;;;;;5040496;28;20227;-69
2023/06/16 03:44:09;;;;;;;4.78;3.78;;;16.60;67.00;;;;;;5054679;28;20190;-69
2023/06/16 03:46:34;;;;;;;5.00;4.22;;;16.60;67.50;;;;;;5044355;28;20189;-69
2023/06/16 03:49:00;;;;;;;4.25;3.70;;;16.60;67.60;;;;;;5038702;28;20216;-69
2023/06/16 03:51:33;;;;;;;4.50;3.72;;;16.60;67.70;;;;;;5045246;28;20244;-68
2023/06/16 03:53:59;;;;;;;4.63;3.72;;;16.60;68.70;;;;;;5054423;28;20185;-67
2023/06/16 03:56:24;;;;;;;11.38;9.27;;;16.60;67.80;;;;;;5053406;28;20185;-69
2023/06/16 03:58:50;;;;;;;29.35;22.30;;;16.60;68.70;;;;;;5051446;28;20323;-68
2023/06/16 04:01:20;;;;;;;14.00;11.35;;;16.60;68.10;;;;;;5033196;28;20177;-69
2023/06/16 04:03:46;;;;;;;10.63;7.80;;;16.60;68.50;;;;;;5056611;28;20239;-70
2023/06/16 04:06:11;;;;;;;6.65;5.60;;;16.70;68.90;;;;;;5033202;28;20175;-69
2023/06/16 04:08:37;;;;;;;5.85;4.32;;;16.70;68.90;;;;;;5053194;28;20173;-69
2023/06/16 04:11:05;;;;;;;6.03;4.60;;;16.70;69.40;;;;;;5039384;28;20224;-69
2023/06/16 04:13:30;;;;;;;4.82;3.88;;;16.70;69.40;;;;;;5055683;28;20177;-68
2023/06/16 04:15:56;;;;;;;5.78;3.85;;;16.70;70.20;;;;;;5052995;28;20174;-69
2023/06/16 04:18:24;;;;;;;4.60;3.70;;;16.70;69.50;;;;;;5036256;28;20241;-69
2023/06/16 04:20:52;;;;;;;4.60;3.78;;;16.80;70.20;;;;;;5042508;28;20204;-77
2023/06/16 04:23:18;;;;;;;5.68;4.22;;;16.80;69.80;;;;;;5036723;28;20198;-74
2023/06/16 04:25:48;;;;;;;4.10;3.58;;;16.90;70.10;;;;;;5051254;28;20499;-78
2023/06/16 04:28:15;;;;;;;4.78;3.70;;;16.90;70.40;;;;;;5036048;28;20185;-78
2023/06/16 04:30:43;;;;;;;4.88;3.17;;;17.00;69.70;;;;;;5019864;28;20248;-76
2023/06/16 04:33:10;;;;;;;5.00;3.40;;;17.00;69.40;;;;;;5039027;28;20181;-77
2023/06/16 04:35:35;;;;;;;4.22;3.00;;;17.10;69.20;;;;;;5055451;28;20197;-77
2023/06/16 04:38:02;;;;;;;6.07;2.90;;;17.10;69.00;;;;;;5039488;28;20235;-76
2023/06/16 04:40:31;;;;;;;4.13;3.40;;;17.10;68.80;;;;;;5055798;28;20173;-77
2023/06/16 04:42:59;;;;;;;3.50;2.90;;;17.20;68.80;;;;;;5034969;28;20232;-79
2023/06/16 04:45:24;;;;;;;3.45;2.97;;;17.20;68.70;;;;;;5048670;28;20395;-79
2023/06/16 04:47:50;;;;;;;3.55;2.92;;;17.20;68.60;;;;;;5039545;28;20189;-79
2023/06/16 04:50:16;;;;;;;3.80;3.10;;;17.20;69.00;;;;;;5045681;28;20209;-81
2023/06/16 04:52:47;;;;;;;4.82;3.47;;;17.30;69.70;;;;;;5055402;28;20174;-66
2023/06/16 04:55:16;;;;;;;4.80;3.85;;;17.30;69.90;;;;;;5030480;28;20201;-66
2023/06/16 04:57:45;;;;;;;7.20;3.97;;;17.30;70.20;;;;;;5039160;28;20184;-79
2023/06/16 05:00:13;;;;;;;7.63;3.70;;;17.30;70.10;;;;;;5038551;28;20192;-76
2023/06/16 05:02:46;;;;;;;6.70;3.78;;;17.30;70.10;;;;;;5019438;28;20174;-78
2023/06/16 05:05:16;;;;;;;3.92;3.10;;;17.30;70.50;;;;;;5019583;28;20177;-77
2023/06/16 05:07:44;;;;;;;4.30;3.55;;;17.40;70.00;;;;;;5029037;28;20259;-77
2023/06/16 05:10:09;;;;;;;5.47;3.42;;;17.40;69.80;;;;;;5055537;28;20201;-78
2023/06/16 05:12:38;;;;;;;6.75;3.28;;;17.40;69.80;;;;;;5055985;28;20191;-78
2023/06/16 05:15:04;;;;;;;4.68;3.47;;;17.50;70.20;;;;;;5055462;28;20193;-78
2023/06/16 05:17:32;;;;;;;4.00;3.03;;;17.50;69.80;;;;;;5055480;28;20200;-69
2023/06/16 05:19:57;;;;;;;4.18;3.20;;;17.50;69.80;;;;;;5054393;28;20220;-69
2023/06/16 05:22:25;;;;;;;4.30;3.70;;;17.60;69.90;;;;;;5055178;28;20177;-67
2023/06/16 05:24:57;;;;;;;3.85;3.40;;;17.70;69.90;;;;;;5055027;28;20178;-69
2023/06/16 05:27:27;;;;;;;4.03;3.13;;;17.70;69.80;;;;;;5038259;28;20161;-69
2023/06/16 05:29:56;;;;;;;4.65;3.47;;;17.80;70.50;;;;;;5038294;28;20292;-69
2023/06/16 05:32:21;;;;;;;3.92;3.15;;;17.80;69.50;;;;;;5037771;28;20169;-68
2023/06/16 05:34:51;;;;;;;3.75;3.33;;;17.80;69.20;;;;;;5037779;28;20236;-69
2023/06/16 05:37:18;;;;;;;4.88;3.10;;;17.90;69.20;;;;;;5034651;28;20182;-68
2023/06/16 05:39:51;;;;;;;3.95;3.38;;;17.90;69.20;;;;;;5034898;28;20174;-70
2023/06/16 05:42:17;;;;;;;4.68;3.33;;;17.90;69.20;;;;;;5045081;28;20185;-68
2023/06/16 05:44:44;;;;;;;6.30;3.30;;;17.90;69.10;;;;;;5038376;28;20268;-68
2023/06/16 05:47:12;;;;;;;6.07;3.17;;;17.90;69.30;;;;;;5037989;28;20177;-68
2023/06/16 05:49:40;;;;;;;5.38;3.50;;;18.00;69.70;;;;;;5054482;28;20209;-68
2023/06/16 05:52:08;;;;;;;6.13;3.38;;;18.00;69.40;;;;;;5054595;28;20260;-68
2023/06/16 05:54:35;;;;;;;4.75;3.80;;;18.00;69.30;;;;;;5037677;28;20173;-69
2023/06/16 05:57:04;;;;;;;5.18;3.35;;;18.10;69.30;;;;;;5037779;28;20169;-69
2023/06/16 05:59:30;;;;;;;5.85;3.47;;;18.10;69.30;;;;;;5037688;28;20189;-67
2023/06/16 06:01:58;;;;;;;4.88;3.78;;;18.20;69.40;;;;;;5054670;28;20169;-67
2023/06/16 06:04:29;;;;;;;4.57;3.38;;;18.20;69.40;;;;;;5053911;28;20201;-67
2023/06/16 06:06:55;;;;;;;5.00;3.80;;;18.20;69.50;;;;;;5037435;28;20173;-67
2023/06/16 06:09:24;;;;;;;6.03;3.50;;;18.30;69.20;;;;;;5054104;28;20219;-68
2023/06/16 06:11:54;;;;;;;6.05;3.33;;;18.30;69.20;;;;;;5053906;28;20197;-68
2023/06/16 06:14:20;;;;;;;4.13;3.30;;;18.40;69.40;;;;;;5056281;28;20185;-68
2023/06/16 06:16:50;;;;;;;8.50;3.47;;;18.40;69.10;;;;;;5038170;28;20256;-68
2023/06/16 06:19:23;;;;;;;4.55;3.03;;;18.50;69.30;;;;;;5054529;28;20205;-68
2023/06/16 06:21:51;;;;;;;6.13;3.30;;;18.60;69.30;;;;;;5037761;28;20173;-68
2023/06/16 06:24:16;;;;;;;4.18;2.95;;;18.60;69.20;;;;;;5054492;28;20184;-68
2023/06/16 06:26:47;;;;;;;4.50;3.35;;;18.70;69.10;;;;;;5037092;28;20197;-67
2023/06/16 06:29:16;;;;;;;5.28;3.03;;;18.80;69.00;;;;;;5038018;28;20219;-68
2023/06/16 06:31:44;;;;;;;4.00;3.10;;;18.90;69.00;;;;;;5038707;28;20200;-68
2023/06/16 06:34:14;;;;;;;4.32;3.20;;;18.90;68.80;;;;;;5053603;28;20193;-68
2023/06/16 06:36:42;;;;;;;3.90;3.08;;;19.00;68.70;;;;;;5037168;28;20173;-67
2023/06/16 06:39:08;;;;;;;3.72;3.00;;;19.10;69.20;;;;;;5054172;28;20341;-68
2023/06/16 06:41:40;;;;;;;5.28;3.15;;;19.10;68.40;;;;;;5053725;28;20205;-68
2023/06/16 06:44:06;;;;;;;4.78;3.20;;;19.20;68.50;;;;;;5054123;28;20181;-68
2023/06/16 06:46:34;;;;;;;3.60;2.97;;;19.30;68.50;;;;;;5036900;28;20250;-68
2023/06/16 06:49:00;;;;;;;4.03;2.95;;;19.30;68.40;;;;;;5053340;28;20193;-68
2023/06/16 06:51:27;;;;;;;4.45;3.05;;;19.40;68.30;;;;;;5053728;28;20201;-68
2023/06/16 06:53:55;;;;;;;3.72;2.92;;;19.50;68.20;;;;;;5053727;28;20197;-68
2023/06/16 06:56:28;;;;;;;4.38;2.85;;;19.50;68.10;;;;;;5053840;28;20223;-68
2023/06/16 06:58:56;;;;;;;3.47;2.88;;;19.60;68.10;;;;;;5037060;28;20187;-69
2023/06/16 07:01:26;;;;;;;4.78;2.72;;;19.70;68.00;;;;;;5030742;28;20206;-68
2023/06/16 07:03:52;;;;;;;6.10;3.08;;;19.80;67.90;;;;;;5023793;28;20185;-68
2023/06/16 07:06:20;;;;;;;4.13;3.15;;;19.90;67.60;;;;;;5053775;28;20176;-68
2023/06/16 07:08:46;;;;;;;4.43;2.85;;;19.90;67.40;;;;;;5053327;28;20197;-68
2023/06/16 07:11:11;;;;;;;3.40;2.80;;;20.00;67.30;;;;;;5053828;28;20209;-68
2023/06/16 07:13:37;;;;;;;3.60;2.88;;;20.10;67.90;;;;;;5053138;28;20185;-68
2023/06/16 07:16:03;;;;;;;3.28;2.97;;;20.20;67.20;;;;;;5036880;28;20184;-68
2023/06/16 07:18:29;;;;;;;4.40;2.67;;;20.30;67.30;;;;;;5036948;28;20169;-67
2023/06/16 07:20:59;;;;;;;3.85;2.50;;;20.30;67.00;;;;;;5028592;28;20260;-68
2023/06/16 07:23:28;;;;;;;3.80;3.08;;;20.40;66.90;;;;;;5033716;28;20173;-67
2023/06/16 07:25:54;;;;;;;4.00;2.65;;;20.40;66.70;;;;;;5036560;28;20264;-68
2023/06/16 07:28:20;;;;;;;3.47;2.90;;;20.50;66.70;;;;;;5036705;28;20204;-68
2023/06/16 07:30:46;;;;;;;3.67;3.05;;;20.60;66.70;;;;;;5036533;28;20193;-68
2023/06/16 07:33:14;;;;;;;3.47;2.78;;;20.70;66.70;;;;;;5036889;28;20172;-68
2023/06/16 07:35:40;;;;;;;4.60;3.10;;;20.70;66.50;;;;;;5036181;28;20198;-69
2023/06/16 07:38:07;;;;;;;4.30;2.78;;;20.80;66.40;;;;;;5053565;28;20176;-68
2023/06/16 07:40:33;;;;;;;2.70;2.40;;;20.90;66.20;;;;;;5052816;28;20181;-67
2023/06/16 07:42:59;;;;;;;3.88;2.72;;;21.00;66.00;;;;;;5048420;28;20187;-68
2023/06/16 07:45:31;;;;;;;3.00;2.28;;;21.10;66.50;;;;;;5053281;28;20192;-68
2023/06/16 07:47:59;;;;;;;4.32;2.95;;;21.30;65.70;;;;;;5053119;28;20194;-68
2023/06/16 07:50:30;;;;;;;2.90;2.58;;;21.30;65.30;;;;;;5053260;28;20209;-68
2023/06/16 07:52:56;;;;;;;3.45;2.50;;;21.40;65.10;;;;;;5033307;28;20170;-68
2023/06/16 07:55:24;;;;;;;3.22;2.55;;;21.50;65.00;;;;;;5033007;28;20208;-67
2023/06/16 07:57:50;;;;;;;6.10;2.67;;;21.50;64.70;;;;;;5036629;28;20181;-68
2023/06/16 08:00:21;;;;;;;4.47;3.05;;;21.60;64.60;;;;;;5037286;28;20174;-68
2023/06/16 08:02:50;;;;;;;3.20;2.90;;;21.70;64.70;;;;;;5054660;28;20217;-69
2023/06/16 08:05:21;;;;;;;4.68;2.80;;;21.70;64.80;;;;;;5040035;28;20173;-68
2023/06/16 08:07:49;;;;;;;4.05;2.45;;;21.80;64.80;;;;;;5057785;28;20166;-68
2023/06/16 08:10:20;;;;;;;3.45;2.58;;;21.90;64.80;;;;;;5056248;28;20205;-68
2023/06/16 08:12:51;;;;;;;3.15;2.85;;;22.00;64.70;;;;;;5056229;28;20180;-67
2023/06/16 08:15:18;;;;;;;3.97;2.90;;;22.10;64.50;;;;;;5056237;28;20448;-67
2023/06/16 08:17:46;;;;;;;4.22;2.92;;;22.30;64.70;;;;;;5056306;28;20185;-68
2023/06/16 08:20:12;;;;;;;4.47;3.10;;;22.40;64.80;;;;;;5039354;28;20212;-68
2023/06/16 08:22:38;;;;;;;4.20;3.08;;;22.50;64.90;;;;;;5039960;28;20291;-67
2023/06/16 08:25:05;;;;;;;3.17;2.67;;;22.60;64.80;;;;;;5039593;28;20165;-68
2023/06/16 08:27:33;;;;;;;3.38;2.63;;;22.70;64.50;;;;;;5039645;28;20180;-68
2023/06/16 08:29:58;;;;;;;3.65;2.60;;;22.80;64.20;;;;;;5044331;28;20215;-67
2023/06/16 08:32:26;;;;;;;2.83;2.53;;;22.90;63.70;;;;;;5056412;28;20173;-65
2023/06/16 08:34:52;;;;;;;2.97;2.45;;;23.00;63.00;;;;;;5038399;28;20226;-66
2023/06/16 08:37:18;;;;;;;3.80;2.60;;;23.00;62.70;;;;;;5055969;28;20181;-67
2023/06/16 08:39:48;;;;;;;3.55;2.70;;;23.10;62.40;;;;;;5055883;28;20235;-67
2023/06/16 08:42:20;;;;;;;3.00;2.60;;;23.10;61.80;;;;;;5055495;28;20173;-66
2023/06/16 08:44:48;;;;;;;3.90;2.35;;;23.20;61.40;;;;;;5055781;28;20256;-66
2023/06/16 08:47:18;;;;;;;2.65;2.33;;;23.30;61.40;;;;;;5056193;28;20193;-65
2023/06/16 08:49:47;;;;;;;3.47;2.28;;;23.30;61.30;;;;;;5038569;28;20209;-66
2023/06/16 08:52:16;;;;;;;4.22;2.70;;;23.40;61.00;;;;;;5039321;28;20323;-67
2023/06/16 08:54:48;;;;;;;4.10;2.65;;;23.40;61.00;;;;;;5037999;28;20177;-66
2023/06/16 08:57:18;;;;;;;3.90;2.40;;;23.50;61.00;;;;;;5055169;28;20254;-67
2023/06/16 08:59:47;;;;;;;5.30;2.55;;;23.60;61.40;;;;;;5050703;28;20238;-67
2023/06/16 09:02:12;;;;;;;3.88;2.25;;;23.60;61.00;;;;;;5054916;28;20187;-66
2023/06/16 09:04:41;;;;;;;3.03;2.70;;;23.70;60.40;;;;;;5055395;28;20256;-67
2023/06/16 09:07:07;;;;;;;3.25;2.40;;;23.80;60.10;;;;;;5038765;28;20201;-68
2023/06/16 09:09:33;;;;;;;4.00;2.40;;;23.90;60.00;;;;;;5037609;28;20213;-67
2023/06/16 09:12:10;;;;;;;3.33;2.40;;;24.00;60.00;;;;;;5038651;28;20177;-66
2023/06/16 09:14:41;;;;;;;2.92;2.25;;;24.10;59.70;;;;;;5055782;28;20173;-66
2023/06/16 09:17:09;;;;;;;3.63;2.58;;;24.10;59.60;;;;;;5038894;28;20185;-69
2023/06/16 09:22:19;;;;;;;3.38;2.30;;;24.30;58.90;;;;;;5056296;28;20204;-67
2023/06/16 09:24:55;;;;;;;3.15;2.53;;;24.40;59.10;;;;;;5055106;28;20170;-65
2023/06/16 09:27:23;;;;;;;3.25;2.65;;;24.40;58.60;;;;;;5054534;28;20215;-64
2023/06/16 09:29:58;;;;;;;4.57;2.50;;;24.50;59.00;;;;;;5037958;28;20270;-66
2023/06/16 09:32:24;;;;;;;3.42;2.45;;;24.60;58.40;;;;;;5055329;28;20180;-67
2023/06/16 09:34:52;;;;;;;3.60;2.60;;;24.70;58.80;;;;;;5067246;28;20180;-66
2023/06/16 09:37:19;;;;;;;2.90;2.42;;;24.70;58.60;;;;;;5055251;28;20193;-67
2023/06/16 09:39:46;;;;;;;2.95;2.47;;;24.80;58.00;;;;;;5038208;28;20384;-68
2023/06/16 09:42:16;;;;;;;2.90;1.98;;;24.90;57.60;;;;;;5038297;28;20166;-67
2023/06/16 09:44:42;;;;;;;2.50;2.22;;;24.90;57.20;;;;;;5054636;28;20189;-67
2023/06/16 09:47:14;;;;;;;4.72;2.50;;;25.00;57.20;;;;;;5038163;28;20173;-65
2023/06/16 09:49:40;;;;;;;2.83;2.40;;;25.10;56.80;;;;;;5037692;28;20193;-64
2023/06/16 09:52:06;;;;;;;2.80;2.35;;;25.10;57.00;;;;;;5054685;28;20218;-67
2023/06/16 09:54:35;;;;;;;3.15;2.60;;;25.20;57.00;;;;;;5051125;28;20260;-67
2023/06/16 09:57:01;;;;;;;3.03;2.72;;;25.30;56.70;;;;;;5018875;28;20200;-67
2023/06/16 09:59:27;;;;;;;3.25;2.40;;;25.40;56.40;;;;;;5054774;28;20245;-67
2023/06/16 10:01:58;;;;;;;2.83;2.30;;;25.50;55.60;;;;;;5054167;28;20362;-67
2023/06/16 10:04:25;;;;;;;2.90;2.42;;;25.60;54.50;;;;;;5054716;28;20197;-64
2023/06/16 10:06:57;;;;;;;2.88;2.58;;;25.60;54.30;;;;;;5054099;28;20177;-67
2023/06/16 10:09:33;;;;;;;3.10;2.35;;;25.70;54.20;;;;;;5054194;28;20330;-67
2023/06/16 10:12:02;;;;;;;2.55;2.30;;;25.80;53.70;;;;;;5037897;28;20224;-67
2023/06/16 10:14:33;;;;;;;2.50;2.30;;;25.90;54.00;;;;;;5036143;28;20178;-67
2023/06/16 10:17:02;;;;;;;4.47;2.22;;;25.90;53.50;;;;;;5054496;28;20231;-66
2023/06/16 10:19:33;;;;;;;2.92;2.20;;;26.00;53.70;;;;;;5037422;28;20170;-67
2023/06/16 10:22:02;;;;;;;2.55;2.25;;;26.10;53.20;;;;;;5037386;28;20241;-68
2023/06/16 10:24:27;;;;;;;2.95;2.38;;;26.10;53.60;;;;;;5037401;28;20243;-68
2023/06/16 10:26:56;;;;;;;3.80;2.70;;;26.20;52.90;;;;;;5044612;28;20178;-67
2023/06/16 10:29:25;;;;;;;3.20;2.70;;;26.20;52.70;;;;;;5017948;28;20479;-66
2023/06/16 10:32:04;;;;;;;3.30;2.60;;;26.20;52.50;;;;;;5032731;28;20225;-65
2023/06/16 10:34:34;;;;;;;2.67;2.20;;;26.30;51.50;;;;;;5040347;28;20175;-68
2023/06/16 10:37:00;;;;;;;3.38;2.80;;;26.40;52.00;;;;;;5054051;28;20216;-67
2023/06/16 10:39:29;;;;;;;3.03;2.53;;;26.50;52.10;;;;;;5053851;28;20260;-67
2023/06/16 10:42:00;;;;;;;5.10;2.65;;;26.60;52.60;;;;;;5054048;28;20181;-69
2023/06/16 10:44:32;;;;;;;3.33;2.55;;;26.80;52.20;;;;;;5037271;28;20193;-67
2023/06/16 10:47:10;;;;;;;3.85;2.47;;;27.00;51.90;;;;;;5036835;28;20181;-66
2023/06/16 10:49:55;;;;;;;2.78;2.45;;;27.30;51.80;;;;;;5053591;28;20185;-68
2023/06/16 10:52:43;;;;;;;2.72;2.40;;;27.50;51.60;;;;;;5046424;28;20211;-68
2023/06/16 10:55:23;;;;;;;3.42;2.13;;;27.70;51.50;;;;;;5033905;28;20169;-68
2023/06/16 10:58:19;;;;;;;3.45;2.50;;;27.90;51.50;;;;;;5031004;28;20211;-68
2023/06/16 11:00:56;;;;;;;3.58;2.22;;;28.20;51.20;;;;;;5053431;28;20247;-68
2023/06/16 11:03:21;;;;;;;2.97;2.55;;;28.40;51.50;;;;;;5036729;28;20192;-68
2023/06/16 11:05:48;;;;;;;2.90;2.55;;;28.60;52.30;;;;;;5053402;28;20193;-68
2023/06/16 11:08:15;;;;;;;3.10;2.60;;;28.80;51.90;;;;;;5033847;28;20220;-66
2023/06/16 11:10:47;;;;;;;2.70;2.42;;;28.90;51.60;;;;;;5037150;28;20293;-68
2023/06/16 11:13:38;;;;;;;4.68;2.50;;;29.10;51.10;;;;;;5034065;28;20173;-68
2023/06/16 11:16:03;;;;;;;3.30;2.88;;;29.30;50.10;;;;;;5047341;28;20176;-68
2023/06/16 11:18:33;;;;;;;5.10;2.60;;;29.50;51.10;;;;;;5053656;28;20199;-67
2023/06/16 11:21:05;;;;;;;2.97;2.70;;;29.60;50.70;;;;;;5053118;28;20271;-68
2023/06/16 11:23:34;;;;;;;2.88;2.50;;;29.80;50.70;;;;;;5033585;28;20173;-69
2023/06/16 11:26:07;;;;;;;2.85;2.50;;;29.90;50.50;;;;;;5052068;28;20204;-68
2023/06/16 11:28:40;;;;;;;3.40;2.70;;;30.10;49.20;;;;;;5036626;28;20183;-69
2023/06/16 11:31:07;;;;;;;2.80;2.60;;;30.20;49.60;;;;;;5037297;28;20216;-68
2023/06/16 11:33:38;;;;;;;3.90;2.58;;;30.30;49.40;;;;;;5057619;28;20172;-69
2023/06/16 11:36:20;;;;;;;3.42;2.95;;;30.40;48.10;;;;;;5056874;28;20172;-68
2023/06/16 11:38:51;;;;;;;3.55;2.60;;;30.40;47.30;;;;;;5040809;28;20226;-69
2023/06/16 11:41:25;;;;;;;2.97;2.55;;;30.50;48.20;;;;;;5040457;28;20259;-68
2023/06/16 11:43:53;;;;;;;4.72;2.72;;;30.50;48.00;;;;;;5037177;28;20450;-68
2023/06/16 11:46:32;;;;;;;2.85;2.50;;;30.60;47.80;;;;;;5037874;28;20201;-68
2023/06/16 11:49:01;;;;;;;2.90;2.60;;;30.70;46.60;;;;;;5049089;28;20180;-68
2023/06/16 11:51:27;;;;;;;4.10;3.00;;;30.70;47.10;;;;;;5040758;28;20227;-69
2023/06/16 11:53:53;;;;;;;2.67;2.47;;;30.80;47.20;;;;;;5039917;28;20239;-68
2023/06/16 11:56:23;;;;;;;3.08;2.78;;;30.80;47.00;;;;;;5040273;28;20168;-67
2023/06/16 11:58:52;;;;;;;3.00;2.70;;;30.90;46.50;;;;;;5039930;28;20227;-68
2023/06/16 12:01:21;;;;;;;3.67;2.65;;;31.00;46.60;;;;;;5040262;28;20173;-68
2023/06/16 12:03:48;;;;;;;3.20;2.70;;;31.00;46.00;;;;;;5040178;28;20268;-65
2023/06/16 12:06:14;;;;;;;2.33;2.13;;;31.10;46.00;;;;;;5056491;28;20247;-68
2023/06/16 12:08:48;;;;;;;4.65;2.70;;;31.20;46.00;;;;;;5057015;28;20176;-69
2023/06/16 12:11:27;;;;;;;2.80;2.50;;;31.30;45.90;;;;;;5056920;28;20280;-68
2023/06/16 12:13:56;;;;;;;3.30;3.00;;;31.40;45.20;;;;;;5044914;28;20173;-68
2023/06/16 12:16:22;;;;;;;3.30;2.67;;;31.50;45.20;;;;;;5038825;28;20256;-68
2023/06/16 12:18:54;;;;;;;3.45;2.50;;;31.60;45.40;;;;;;5065686;28;20180;-68
2023/06/16 12:21:20;;;;;;;2.97;2.67;;;31.70;44.90;;;;;;5064905;28;20191;-70
2023/06/16 12:23:53;;;;;;;3.03;2.40;;;31.70;44.70;;;;;;5048156;28;20220;-71
2023/06/16 12:26:32;;;;;;;3.45;2.85;;;31.70;43.80;;;;;;5039918;28;20185;-70
2023/06/16 12:29:00;;;;;;;2.83;2.50;;;31.80;42.90;;;;;;5038857;28;20201;-70
2023/06/16 12:31:26;;;;;;;2.67;2.47;;;31.80;43.70;;;;;;5040294;28;20208;-70
2023/06/16 12:33:53;;;;;;;2.85;2.65;;;31.80;43.10;;;;;;5039724;28;20203;-68
2023/06/16 12:36:20;;;;;;;2.50;2.30;;;31.90;43.50;;;;;;5040224;28;20237;-69
2023/06/16 12:38:46;;;;;;;3.17;2.80;;;31.90;43.30;;;;;;5039476;28;20169;-69
2023/06/16 12:41:15;;;;;;;2.95;2.65;;;32.00;42.80;;;;;;5039964;28;20181;-68
2023/06/16 12:43:51;;;;;;;2.90;2.38;;;32.00;42.70;;;;;;5055900;28;20183;-68
2023/06/16 12:46:18;;;;;;;2.92;2.63;;;32.10;42.20;;;;;;5056046;28;20183;-69
2023/06/16 12:48:44;;;;;;;2.63;2.40;;;32.10;42.60;;;;;;5055572;28;20208;-68
2023/06/16 12:51:11;;;;;;;2.88;2.63;;;32.20;42.80;;;;;;5056989;28;20216;-68
2023/06/16 12:53:47;;;;;;;3.10;2.80;;;32.30;42.30;;;;;;5056371;28;20172;-65
2023/06/16 12:56:15;;;;;;;3.20;2.70;;;32.30;41.30;;;;;;5056942;28;20207;-68